sensor_id;sensor_type;location;lat;lon;timestamp;pressure;altitude;pressure_sealevel;temperature;humidity
1652;BME280;823;49.028;8.454;2022-09-27T00:01:33;98655.69;;;13.52;70.11
1652;BME280;823;49.028;8.454;2022-09-27T00:06:33;98661.59;;;13.54;70.26
1652;BME280;823;49.028;8.454;2022-09-27T00:11:36;98656.13;;;13.45;70.36
1652;BME280;823;49.028;8.454;2022-09-27T00:16:39;98656.84;;;13.48;70.74
1652;BME280;823;49.028;8.454;2022-09-27T00:21:40;98658.50;;;13.49;70.74
1652;BME280;823;49.028;8.454;2022-09-27T00:26:41;98656.81;;;13.72;70.16
1652;BME280;823;49.028;8.454;2022-09-27T00:31:43;98654.44;;;13.69;70.21
1652;BME280;823;49.028;8.454;2022-09-27T00:36:43;98648.44;;;13.68;70.53
1652;BME280;823;49.028;8.454;2022-09-27T00:41:44;98651.69;;;13.59;70.84
1652;BME280;823;49.028;8.454;2022-09-27T00:46:47;98650.03;;;13.58;70.49
1652;BME280;823;49.028;8.454;2022-09-27T00:51:53;98637.28;;;13.55;70.98
1652;BME280;823;49.028;8.454;2022-09-27T00:56:55;98636.56;;;13.53;70.79
1652;BME280;823;49.028;8.454;2022-09-27T01:01:55;98641.09;;;13.73;70.38
1652;BME280;823;49.028;8.454;2022-09-27T01:06:56;98634.00;;;13.64;70.65
1652;BME280;823;49.028;8.454;2022-09-27T01:17:30;98650.19;;;13.68;70.56
1652;BME280;823;49.028;8.454;2022-09-27T01:39:09;98666.38;;;13.47;70.64
1652;BME280;823;49.028;8.454;2022-09-27T01:43:58;98666.47;;;13.58;70.51
1652;BME280;823;49.028;8.454;2022-09-27T01:49:04;98674.13;;;13.60;70.08
1652;BME280;823;49.028;8.454;2022-09-27T01:54:08;98684.75;;;13.57;70.25
1652;BME280;823;49.028;8.454;2022-09-27T01:59:20;98684.53;;;13.60;70.05
1652;BME280;823;49.028;8.454;2022-09-27T02:04:26;98688.72;;;13.50;70.35
1652;BME280;823;49.028;8.454;2022-09-27T02:09:36;98684.22;;;13.40;70.86
1652;BME280;823;49.028;8.454;2022-09-27T02:14:40;98696.88;;;13.32;71.04
1652;BME280;823;49.028;8.454;2022-09-27T02:20:10;98694.16;;;13.47;70.38
1652;BME280;823;49.028;8.454;2022-09-27T02:25:13;98690.44;;;13.38;70.79
1652;BME280;823;49.028;8.454;2022-09-27T02:30:17;98693.75;;;13.40;70.85
1652;BME280;823;49.028;8.454;2022-09-27T02:35:22;98696.50;;;13.50;70.31
1652;BME280;823;49.028;8.454;2022-09-27T02:40:29;98714.53;;;13.27;70.85
1652;BME280;823;49.028;8.454;2022-09-27T02:45:59;98706.84;;;13.38;70.34
1652;BME280;823;49.028;8.454;2022-09-27T02:51:14;98708.72;;;13.23;70.76
1652;BME280;823;49.028;8.454;2022-09-27T03:01:44;98722.81;;;13.45;69.83
1652;BME280;823;49.028;8.454;2022-09-27T03:06:49;98730.28;;;13.50;70.02
1652;BME280;823;49.028;8.454;2022-09-27T03:11:51;98731.72;;;13.54;69.83
1652;BME280;823;49.028;8.454;2022-09-27T03:16:52;98732.00;;;13.38;70.08
1652;BME280;823;49.028;8.454;2022-09-27T03:21:52;98734.66;;;13.49;69.85
1652;BME280;823;49.028;8.454;2022-09-27T03:26:52;98740.59;;;13.38;70.15
1652;BME280;823;49.028;8.454;2022-09-27T03:31:53;98741.28;;;13.53;69.49
1652;BME280;823;49.028;8.454;2022-09-27T03:36:53;98742.88;;;13.43;69.80
1652;BME280;823;49.028;8.454;2022-09-27T03:41:53;98735.31;;;13.27;69.12
1652;BME280;823;49.028;8.454;2022-09-27T03:46:54;98743.72;;;13.43;68.92
1652;BME280;823;49.028;8.454;2022-09-27T03:51:54;98750.28;;;13.23;68.94
1652;BME280;823;49.028;8.454;2022-09-27T03:56:54;98746.53;;;13.40;68.55
1652;BME280;823;49.028;8.454;2022-09-27T04:01:55;98744.31;;;13.34;68.81
1652;BME280;823;49.028;8.454;2022-09-27T04:06:55;98758.16;;;13.22;68.67
1652;BME280;823;49.028;8.454;2022-09-27T04:11:56;98771.06;;;13.36;68.70
1652;BME280;823;49.028;8.454;2022-09-27T04:16:57;98767.91;;;13.31;68.57
1652;BME280;823;49.028;8.454;2022-09-27T04:21:57;98765.84;;;13.23;68.49
1652;BME280;823;49.028;8.454;2022-09-27T04:26:57;98778.72;;;13.25;68.11
1652;BME280;823;49.028;8.454;2022-09-27T04:31:58;98779.06;;;13.20;68.31
1652;BME280;823;49.028;8.454;2022-09-27T04:36:58;98792.00;;;13.33;67.88
1652;BME280;823;49.028;8.454;2022-09-27T04:41:59;98795.44;;;13.21;67.71
1652;BME280;823;49.028;8.454;2022-09-27T04:47:00;98807.28;;;13.25;67.62
1652;BME280;823;49.028;8.454;2022-09-27T04:52:00;98821.69;;;13.29;67.72
1652;BME280;823;49.028;8.454;2022-09-27T04:57:01;98817.78;;;13.23;67.55
1652;BME280;823;49.028;8.454;2022-09-27T05:02:01;98827.13;;;13.26;67.51
1652;BME280;823;49.028;8.454;2022-09-27T05:07:02;98824.63;;;13.24;67.96
1652;BME280;823;49.028;8.454;2022-09-27T05:12:03;98829.00;;;13.37;67.49
1652;BME280;823;49.028;8.454;2022-09-27T05:17:06;98841.78;;;13.27;67.28
1652;BME280;823;49.028;8.454;2022-09-27T05:22:07;98849.16;;;13.20;67.42
1652;BME280;823;49.028;8.454;2022-09-27T05:27:13;98852.78;;;13.31;67.30
1652;BME280;823;49.028;8.454;2022-09-27T05:32:19;98866.69;;;13.29;67.12
1652;BME280;823;49.028;8.454;2022-09-27T05:37:20;98875.84;;;13.35;66.85
1652;BME280;823;49.028;8.454;2022-09-27T05:42:21;98881.97;;;13.47;66.40
1652;BME280;823;49.028;8.454;2022-09-27T05:47:21;98879.56;;;13.44;66.95
1652;BME280;823;49.028;8.454;2022-09-27T05:52:21;98883.84;;;13.45;66.91
1652;BME280;823;49.028;8.454;2022-09-27T05:57:22;98879.78;;;13.28;66.57
1652;BME280;823;49.028;8.454;2022-09-27T06:02:23;98899.31;;;13.34;66.45
1652;BME280;823;49.028;8.454;2022-09-27T06:07:24;98899.09;;;13.24;66.24
1652;BME280;823;49.028;8.454;2022-09-27T06:12:24;98907.50;;;13.27;66.10
1652;BME280;823;49.028;8.454;2022-09-27T06:17:25;98911.06;;;13.26;65.87
1652;BME280;823;49.028;8.454;2022-09-27T06:22:25;98909.81;;;13.32;66.07
1652;BME280;823;49.028;8.454;2022-09-27T06:27:25;98914.47;;;13.27;66.14
1652;BME280;823;49.028;8.454;2022-09-27T06:32:26;98930.75;;;13.29;65.88
1652;BME280;823;49.028;8.454;2022-09-27T06:37:26;98927.94;;;13.19;65.79
1652;BME280;823;49.028;8.454;2022-09-27T06:42:26;98933.25;;;13.18;65.63
1652;BME280;823;49.028;8.454;2022-09-27T06:47:27;98938.16;;;13.22;65.44
1652;BME280;823;49.028;8.454;2022-09-27T06:52:29;98942.72;;;13.06;65.51
1652;BME280;823;49.028;8.454;2022-09-27T06:57:30;98966.50;;;13.13;65.48
1652;BME280;823;49.028;8.454;2022-09-27T07:02:49;98951.91;;;12.97;65.26
1652;BME280;823;49.028;8.454;2022-09-27T07:07:50;98963.38;;;13.20;64.65
1652;BME280;823;49.028;8.454;2022-09-27T07:12:55;98975.78;;;12.89;64.78
1652;BME280;823;49.028;8.454;2022-09-27T07:17:56;98986.75;;;13.20;64.15
1652;BME280;823;49.028;8.454;2022-09-27T07:22:57;98999.50;;;13.23;64.28
1652;BME280;823;49.028;8.454;2022-09-27T07:28:02;98994.75;;;13.30;63.90
1652;BME280;823;49.028;8.454;2022-09-27T07:33:04;98994.88;;;13.41;63.61
1652;BME280;823;49.028;8.454;2022-09-27T07:38:06;99009.66;;;13.41;63.21
1652;BME280;823;49.028;8.454;2022-09-27T07:43:08;99022.72;;;13.39;62.62
1652;BME280;823;49.028;8.454;2022-09-27T07:48:13;99026.06;;;13.41;63.28
1652;BME280;823;49.028;8.454;2022-09-27T07:53:13;99032.19;;;13.40;62.91
1652;BME280;823;49.028;8.454;2022-09-27T07:58:14;99042.69;;;13.52;62.77
1652;BME280;823;49.028;8.454;2022-09-27T08:03:15;99050.06;;;13.58;62.36
1652;BME280;823;49.028;8.454;2022-09-27T08:08:16;99051.03;;;13.57;62.38
1652;BME280;823;49.028;8.454;2022-09-27T08:13:17;99056.06;;;13.45;62.58
1652;BME280;823;49.028;8.454;2022-09-27T08:18:19;99055.25;;;13.58;62.26
1652;BME280;823;49.028;8.454;2022-09-27T08:23:21;99057.97;;;13.56;62.12
1652;BME280;823;49.028;8.454;2022-09-27T08:28:21;99050.28;;;13.68;62.50
1652;BME280;823;49.028;8.454;2022-09-27T08:33:22;99056.50;;;13.65;62.79
1652;BME280;823;49.028;8.454;2022-09-27T08:38:24;99053.84;;;13.79;62.89
1652;BME280;823;49.028;8.454;2022-09-27T08:49:13;99044.97;;;14.08;61.51
1652;BME280;823;49.028;8.454;2022-09-27T08:54:21;99042.44;;;14.32;60.82
1652;BME280;823;49.028;8.454;2022-09-27T08:59:27;99047.19;;;14.38;60.38
1652;BME280;823;49.028;8.454;2022-09-27T09:04:35;99038.28;;;14.29;59.43
1652;BME280;823;49.028;8.454;2022-09-27T09:20:30;99040.06;;;14.29;59.00
1652;BME280;823;49.028;8.454;2022-09-27T09:25:51;99037.31;;;14.43;59.49
1652;BME280;823;49.028;8.454;2022-09-27T09:31:23;99030.44;;;14.42;59.50
1652;BME280;823;49.028;8.454;2022-09-27T09:36:34;99027.41;;;14.48;58.98
1652;BME280;823;49.028;8.454;2022-09-27T09:46:59;99017.16;;;14.71;57.79
1652;BME280;823;49.028;8.454;2022-09-27T09:52:05;99018.06;;;14.70;57.83
1652;BME280;823;49.028;8.454;2022-09-27T10:02:31;99046.31;;;14.01;62.04
1652;BME280;823;49.028;8.454;2022-09-27T10:07:33;99038.25;;;13.67;63.64
1652;BME280;823;49.028;8.454;2022-09-27T10:12:35;99020.78;;;13.69;63.69
1652;BME280;823;49.028;8.454;2022-09-27T10:17:39;99026.16;;;13.40;65.13
1652;BME280;823;49.028;8.454;2022-09-27T10:22:47;99028.56;;;13.56;65.88
1652;BME280;823;49.028;8.454;2022-09-27T10:27:51;99022.84;;;13.76;66.69
1652;BME280;823;49.028;8.454;2022-09-27T10:32:57;99026.69;;;13.84;65.69
1652;BME280;823;49.028;8.454;2022-09-27T10:38:21;99023.06;;;13.60;65.53
1652;BME280;823;49.028;8.454;2022-09-27T10:48:28;99030.38;;;12.88;65.77
1652;BME280;823;49.028;8.454;2022-09-27T10:53:30;99015.59;;;12.75;66.32
1652;BME280;823;49.028;8.454;2022-09-27T10:58:36;98993.38;;;12.71;66.17
1652;BME280;823;49.028;8.454;2022-09-27T11:03:47;99012.59;;;12.54;66.86
1652;BME280;823;49.028;8.454;2022-09-27T11:08:51;98996.59;;;12.48;67.66
1652;BME280;823;49.028;8.454;2022-09-27T11:13:59;99000.06;;;12.34;68.16
1652;BME280;823;49.028;8.454;2022-09-27T11:20:02;99009.06;;;12.28;68.12
1652;BME280;823;49.028;8.454;2022-09-27T11:25:09;99025.81;;;12.37;67.55
1652;BME280;823;49.028;8.454;2022-09-27T11:30:17;99034.03;;;12.29;68.23
1652;BME280;823;49.028;8.454;2022-09-27T11:35:43;99021.44;;;12.37;67.90
1652;BME280;823;49.028;8.454;2022-09-27T11:52:05;99000.78;;;12.36;68.17
1652;BME280;823;49.028;8.454;2022-09-27T11:57:24;98986.66;;;12.54;69.23
1652;BME280;823;49.028;8.454;2022-09-27T12:13:30;98972.03;;;13.47;71.02
1652;BME280;823;49.028;8.454;2022-09-27T12:18:36;98971.72;;;13.64;69.72
1652;BME280;823;49.028;8.454;2022-09-27T12:23:44;98974.84;;;13.56;68.17
1652;BME280;823;49.028;8.454;2022-09-27T12:28:51;98960.38;;;13.65;68.27
1652;BME280;823;49.028;8.454;2022-09-27T12:39:42;98966.28;;;13.93;67.32
1652;BME280;823;49.028;8.454;2022-09-27T12:44:46;98955.03;;;14.05;66.81
1652;BME280;823;49.028;8.454;2022-09-27T13:00:25;98967.16;;;13.81;66.12
1652;BME280;823;49.028;8.454;2022-09-27T13:05:33;98967.88;;;14.20;66.28
1652;BME280;823;49.028;8.454;2022-09-27T13:16:19;98956.38;;;14.35;66.50
1652;BME280;823;49.028;8.454;2022-09-27T13:26:47;98967.84;;;14.57;66.30
1652;BME280;823;49.028;8.454;2022-09-27T13:36:54;98954.47;;;14.50;66.02
1652;BME280;823;49.028;8.454;2022-09-27T13:42:11;98939.06;;;14.47;65.89
1652;BME280;823;49.028;8.454;2022-09-27T13:52:35;98948.81;;;13.95;64.92
1652;BME280;823;49.028;8.454;2022-09-27T13:57:50;98953.94;;;13.58;64.76
1652;BME280;823;49.028;8.454;2022-09-27T14:02:59;98946.81;;;13.49;65.56
1652;BME280;823;49.028;8.454;2022-09-27T14:08:01;98954.56;;;13.23;66.83
1652;BME280;823;49.028;8.454;2022-09-27T14:13:04;98952.16;;;13.20;67.14
1652;BME280;823;49.028;8.454;2022-09-27T14:18:10;98948.84;;;13.31;67.04
1652;BME280;823;49.028;8.454;2022-09-27T14:23:22;98940.44;;;13.27;67.84
1652;BME280;823;49.028;8.454;2022-09-27T14:33:28;98935.56;;;13.48;69.13
1652;BME280;823;49.028;8.454;2022-09-27T14:38:30;98929.50;;;13.86;69.19
1652;BME280;823;49.028;8.454;2022-09-27T14:43:34;98936.50;;;14.10;68.37
1652;BME280;823;49.028;8.454;2022-09-27T14:48:38;98934.66;;;13.99;67.43
1652;BME280;823;49.028;8.454;2022-09-27T14:53:51;98939.44;;;13.92;67.01
1652;BME280;823;49.028;8.454;2022-09-27T14:59:01;98949.88;;;13.79;66.54
1652;BME280;823;49.028;8.454;2022-09-27T15:04:07;98950.41;;;13.85;67.42
1652;BME280;823;49.028;8.454;2022-09-27T15:09:13;98946.69;;;14.13;66.87
1652;BME280;823;49.028;8.454;2022-09-27T15:14:16;98941.47;;;14.13;66.37
1652;BME280;823;49.028;8.454;2022-09-27T15:19:25;98946.06;;;13.72;62.63
1652;BME280;823;49.028;8.454;2022-09-27T15:24:43;98952.56;;;13.91;63.29
1652;BME280;823;49.028;8.454;2022-09-27T15:29:52;98949.03;;;13.92;63.41
1652;BME280;823;49.028;8.454;2022-09-27T15:34:54;98952.16;;;13.97;63.64
1652;BME280;823;49.028;8.454;2022-09-27T15:40:07;98959.44;;;13.92;63.46
1652;BME280;823;49.028;8.454;2022-09-27T15:45:33;98962.03;;;13.92;63.21
1652;BME280;823;49.028;8.454;2022-09-27T15:50:34;98965.66;;;13.89;63.84
1652;BME280;823;49.028;8.454;2022-09-27T15:55:40;98970.53;;;13.94;63.00
1652;BME280;823;49.028;8.454;2022-09-27T16:00:55;98966.50;;;13.77;62.42
1652;BME280;823;49.028;8.454;2022-09-27T16:05:57;98976.19;;;13.75;61.71
1652;BME280;823;49.028;8.454;2022-09-27T16:10:58;98967.03;;;13.69;61.48
1652;BME280;823;49.028;8.454;2022-09-27T16:16:00;98975.78;;;13.68;61.77
1652;BME280;823;49.028;8.454;2022-09-27T16:21:01;98989.59;;;13.69;61.64
1652;BME280;823;49.028;8.454;2022-09-27T16:26:01;98990.22;;;13.72;61.30
1652;BME280;823;49.028;8.454;2022-09-27T16:31:04;98994.06;;;13.67;61.19
1652;BME280;823;49.028;8.454;2022-09-27T16:36:06;99005.94;;;13.71;61.13
1652;BME280;823;49.028;8.454;2022-09-27T16:41:13;99008.31;;;13.74;61.66
1652;BME280;823;49.028;8.454;2022-09-27T16:46:14;99002.25;;;13.73;61.54
1652;BME280;823;49.028;8.454;2022-09-27T16:51:20;99013.41;;;13.62;61.41
1652;BME280;823;49.028;8.454;2022-09-27T16:56:39;99017.13;;;13.71;60.67
1652;BME280;823;49.028;8.454;2022-09-27T17:01:39;99013.78;;;13.69;60.93
1652;BME280;823;49.028;8.454;2022-09-27T17:06:39;99014.84;;;13.54;61.17
1652;BME280;823;49.028;8.454;2022-09-27T17:11:39;99016.41;;;13.69;61.46
1652;BME280;823;49.028;8.454;2022-09-27T17:16:40;99027.44;;;13.60;61.32
1652;BME280;823;49.028;8.454;2022-09-27T17:21:41;99026.47;;;13.48;61.17
1652;BME280;823;49.028;8.454;2022-09-27T17:26:43;99029.88;;;13.36;61.06
1652;BME280;823;49.028;8.454;2022-09-27T17:31:43;99022.78;;;13.25;60.47
1652;BME280;823;49.028;8.454;2022-09-27T17:36:44;99031.19;;;13.28;60.13
1652;BME280;823;49.028;8.454;2022-09-27T17:41:48;99031.19;;;13.16;60.27
1652;BME280;823;49.028;8.454;2022-09-27T17:46:49;99027.94;;;13.12;60.28
1652;BME280;823;49.028;8.454;2022-09-27T17:52:09;99031.09;;;13.17;60.34
1652;BME280;823;49.028;8.454;2022-09-27T17:57:09;99034.38;;;13.06;61.04
1652;BME280;823;49.028;8.454;2022-09-27T18:02:09;99032.22;;;13.13;60.84
1652;BME280;823;49.028;8.454;2022-09-27T18:07:10;99025.00;;;13.04;61.14
1652;BME280;823;49.028;8.454;2022-09-27T18:12:12;99028.53;;;13.03;61.19
1652;BME280;823;49.028;8.454;2022-09-27T18:17:12;99035.81;;;12.98;61.41
1652;BME280;823;49.028;8.454;2022-09-27T18:22:13;99035.16;;;12.94;61.83
1652;BME280;823;49.028;8.454;2022-09-27T18:27:13;99040.25;;;12.95;62.10
1652;BME280;823;49.028;8.454;2022-09-27T18:32:17;99047.22;;;12.95;62.11
1652;BME280;823;49.028;8.454;2022-09-27T18:37:17;99050.25;;;12.74;62.19
1652;BME280;823;49.028;8.454;2022-09-27T18:42:17;99049.47;;;12.87;62.03
1652;BME280;823;49.028;8.454;2022-09-27T18:47:18;99056.16;;;12.76;61.97
1652;BME280;823;49.028;8.454;2022-09-27T18:52:18;99059.69;;;12.75;61.64
1652;BME280;823;49.028;8.454;2022-09-27T18:57:18;99057.84;;;12.77;61.50
1652;BME280;823;49.028;8.454;2022-09-27T19:02:19;99062.91;;;12.79;61.41
1652;BME280;823;49.028;8.454;2022-09-27T19:07:19;99064.53;;;12.67;61.89
1652;BME280;823;49.028;8.454;2022-09-27T19:12:19;99062.41;;;12.74;61.31
1652;BME280;823;49.028;8.454;2022-09-27T19:17:20;99063.78;;;12.80;61.28
1652;BME280;823;49.028;8.454;2022-09-27T19:22:20;99063.56;;;12.83;60.22
1652;BME280;823;49.028;8.454;2022-09-27T19:27:20;99052.28;;;12.84;60.90
1652;BME280;823;49.028;8.454;2022-09-27T19:32:21;99055.78;;;12.83;60.86
1652;BME280;823;49.028;8.454;2022-09-27T19:37:21;99046.66;;;12.90;60.34
1652;BME280;823;49.028;8.454;2022-09-27T19:42:21;99039.97;;;13.00;60.21
1652;BME280;823;49.028;8.454;2022-09-27T19:47:21;99039.63;;;12.92;60.42
1652;BME280;823;49.028;8.454;2022-09-27T19:52:22;99035.56;;;12.88;60.57
1652;BME280;823;49.028;8.454;2022-09-27T19:57:22;99034.78;;;13.00;60.09
1652;BME280;823;49.028;8.454;2022-09-27T20:02:22;99020.19;;;12.85;60.00
1652;BME280;823;49.028;8.454;2022-09-27T20:07:23;99012.13;;;12.89;60.05
1652;BME280;823;49.028;8.454;2022-09-27T20:12:23;99013.53;;;12.81;60.25
1652;BME280;823;49.028;8.454;2022-09-27T20:17:23;99005.84;;;12.79;60.09
1652;BME280;823;49.028;8.454;2022-09-27T20:22:24;99013.72;;;12.77;60.17
1652;BME280;823;49.028;8.454;2022-09-27T20:27:24;99004.44;;;12.88;60.21
1652;BME280;823;49.028;8.454;2022-09-27T20:32:24;99004.44;;;12.88;59.97
1652;BME280;823;49.028;8.454;2022-09-27T20:37:25;99000.28;;;12.98;60.14
1652;BME280;823;49.028;8.454;2022-09-27T20:42:25;98997.50;;;13.01;60.08
1652;BME280;823;49.028;8.454;2022-09-27T20:47:26;98988.56;;;13.05;59.91
1652;BME280;823;49.028;8.454;2022-09-27T20:52:27;98987.66;;;13.06;60.27
1652;BME280;823;49.028;8.454;2022-09-27T20:57:27;98989.31;;;13.07;60.22
1652;BME280;823;49.028;8.454;2022-09-27T21:02:28;98973.53;;;12.98;59.87
1652;BME280;823;49.028;8.454;2022-09-27T21:07:28;98980.41;;;13.11;60.37
1652;BME280;823;49.028;8.454;2022-09-27T21:12:29;98965.53;;;13.14;60.34
1652;BME280;823;49.028;8.454;2022-09-27T21:17:29;98955.38;;;13.10;60.43
1652;BME280;823;49.028;8.454;2022-09-27T21:22:29;98942.00;;;13.17;60.35
1652;BME280;823;49.028;8.454;2022-09-27T21:27:30;98940.66;;;13.24;60.49
1652;BME280;823;49.028;8.454;2022-09-27T21:32:30;98933.56;;;13.13;60.77
1652;BME280;823;49.028;8.454;2022-09-27T21:37:31;98929.31;;;13.25;60.47
1652;BME280;823;49.028;8.454;2022-09-27T21:42:31;98920.06;;;13.21;61.34
1652;BME280;823;49.028;8.454;2022-09-27T21:47:32;98916.44;;;13.23;61.60
1652;BME280;823;49.028;8.454;2022-09-27T21:52:32;98901.47;;;13.27;61.45
1652;BME280;823;49.028;8.454;2022-09-27T21:57:33;98889.31;;;13.27;61.94
1652;BME280;823;49.028;8.454;2022-09-27T22:02:33;98876.78;;;13.21;62.07
1652;BME280;823;49.028;8.454;2022-09-27T22:07:34;98866.91;;;13.26;62.18
1652;BME280;823;49.028;8.454;2022-09-27T22:12:34;98858.50;;;13.23;62.45
1652;BME280;823;49.028;8.454;2022-09-27T22:17:34;98849.78;;;13.24;62.00
1652;BME280;823;49.028;8.454;2022-09-27T22:22:35;98836.91;;;13.22;62.35
1652;BME280;823;49.028;8.454;2022-09-27T22:27:35;98830.44;;;13.28;62.21
1652;BME280;823;49.028;8.454;2022-09-27T22:32:35;98825.03;;;13.31;62.38
1652;BME280;823;49.028;8.454;2022-09-27T22:37:36;98804.03;;;13.34;61.85
1652;BME280;823;49.028;8.454;2022-09-27T22:42:36;98806.16;;;13.42;61.85
1652;BME280;823;49.028;8.454;2022-09-27T22:47:37;98797.81;;;13.50;61.72
1652;BME280;823;49.028;8.454;2022-09-27T22:52:37;98774.75;;;13.45;61.85
1652;BME280;823;49.028;8.454;2022-09-27T22:57:37;98768.00;;;13.42;62.00
1652;BME280;823;49.028;8.454;2022-09-27T23:02:38;98757.50;;;13.44;61.79
1652;BME280;823;49.028;8.454;2022-09-27T23:07:38;98752.31;;;13.44;61.66
1652;BME280;823;49.028;8.454;2022-09-27T23:12:38;98740.88;;;13.47;61.49
1652;BME280;823;49.028;8.454;2022-09-27T23:17:39;98736.53;;;13.34;61.92
1652;BME280;823;49.028;8.454;2022-09-27T23:22:39;98735.06;;;13.43;62.09
1652;BME280;823;49.028;8.454;2022-09-27T23:27:40;98723.63;;;13.45;62.32
1652;BME280;823;49.028;8.454;2022-09-27T23:32:45;98710.78;;;13.44;62.48
1652;BME280;823;49.028;8.454;2022-09-27T23:37:53;98700.78;;;13.51;62.56
1652;BME280;823;49.028;8.454;2022-09-27T23:42:54;98689.44;;;13.52;62.80
1652;BME280;823;49.028;8.454;2022-09-27T23:47:54;98673.75;;;13.53;62.68
1652;BME280;823;49.028;8.454;2022-09-27T23:52:56;98666.66;;;13.55;62.91
1652;BME280;823;49.028;8.454;2022-09-27T23:57:57;98667.50;;;13.56;63.01
